Toyama Airport, Japan

3:24 AM JST on December 29, 2014 (GMT +0900)
JR9MAR-WX | Change Station
CLOSE
Current Station
Personal Weather Station
Location: TONAMI, TOYAMA
Elevation: 325 ft
Nearby Weather Stations

Elev 325 ft 36.57 °N, 136.98 °E | Updated 3 seconds ago

Light Rain Showers
Light Showers Rain
37.3 °F
Feels Like 37 °F
N
0.0
Wind Variable Wind from NW
Gusts 1.6 mph

Today
High -- | Low -- °F
--% Chance of Precip.
Yesterday
High -- | Low -- °F
Precip. -- in
7:02 AM 4:43 PM
Waxing Crescent, 50% visible
Pressure 29.92 in
Visibility 3.7 miles
Clouds Few 800 ft
Scattered Clouds 2000 ft
Mostly Cloudy 3500 ft
Windchill 37 °F
Dew Point 36 °F
Humidity 95%
Rainfall 0.02 in
Snow Depth Not available.
UV 0 out of 12
Pollen Not available.
Air Quality Not available.
Flu Activity Not available.
METAR RJNK 281800Z VRB02KT 6000 -SHRA FEW008 SCT020 BKN035 04/04 Q1013

More Conditions Fewer Conditions

Pressure 29.92 in
Visibility 3.7 miles
Clouds Few 800 ft
Scattered Clouds 2000 ft
Mostly Cloudy 3500 ft
Windchill 37 °F
Dew Point 36 °F
Humidity 95%
Rainfall 0.02 in
Snow Depth Not available.
UV 0 out of 12
Pollen Not available.
Air Quality Not available.
Flu Activity Not available.
METAR RJNK 281800Z VRB02KT 6000 -SHRA FEW008 SCT020 BKN035 04/04 Q1013

More Conditions Fewer Conditions

10-Day Weather Forecast

Almanac

Astronomy

Dec. 29, 2014 Rise Set
Actual Time
Civil Twilight
Nautical Twilight
Astronomical Twilight
Moon
Length of Visible Light
Length of Day
Tomorrow will be .
, % of the Moon is Illuminated

Today's Extremes

Country Highs Country Lows

Community

WunderPhotos

Upload Photos

1,781,379 photos uploaded!

WunderBlogs® & News

Nearby

Air Quality

  Air Quality AQ Index Pollutant
Not available.

Snow Depth

Station Depth Elevation

Earthquake Activity

City Distance Mag. Time & Date
Minimum magnitude displayed is 2.5.

Coastal Water Temperatures

Place Temperature

Nearby Weather Stations